Time;durP1;ratioP1;P1;durP2;ratioP2;P2;SDS_P1;SDS_P2;PMS_P1;PMS_P2;Temp;Humidity;BMP_temperature;BMP_pressure;BME280_temperature;BME280_humidity;BME280_pressure;Samples;Min_cycle;Max_cycle;Signal;HPM_P1;HPM_P2
2023/10/05 00:02:04;;;;;;;5.80;1.65;;;;;;;16.26;61.51;102270.50;5148822;27;20058;-68
2023/10/05 00:04:40;;;;;;;10.75;2.05;;;;;;;16.28;61.87;102273.81;5150201;27;20043;-69
2023/10/05 00:07:10;;;;;;;;;;;;;;;16.27;61.75;102273.00;5145371;27;20058;-69
2023/10/05 00:09:39;;;;;;;6.30;2.13;;;;;;;16.28;61.80;102271.09;5152790;27;19919;-69
2023/10/05 00:12:12;;;;;;;4.90;1.67;;;;;;;16.29;61.91;102278.19;5154598;27;20102;-69
2023/10/05 00:14:40;;;;;;;8.93;2.45;;;;;;;16.26;61.79;102278.63;5146633;27;20173;-69
2023/10/05 00:17:08;;;;;;;7.45;2.33;;;;;;;16.26;61.87;102284.06;5147896;27;20043;-69
2023/10/05 00:19:39;;;;;;;3.63;1.67;;;;;;;16.25;61.86;102280.53;5148494;27;20069;-69
2023/10/05 00:22:07;;;;;;;5.80;2.05;;;;;;;16.25;62.00;102291.38;5145810;27;20483;-68
2023/10/05 00:24:37;;;;;;;11.93;2.47;;;;;;;16.23;61.92;102293.47;5137845;27;20496;-69
2023/10/05 00:27:08;;;;;;;8.18;2.90;;;;;;;16.23;61.91;102292.66;5149807;27;20082;-69
2023/10/05 00:29:46;;;;;;;7.50;2.53;;;;;;;16.20;61.83;102291.22;5142491;27;20069;-69
2023/10/05 00:32:15;;;;;;;6.00;1.70;;;;;;;16.19;61.91;102291.44;5142353;27;20039;-70
2023/10/05 00:34:44;;;;;;;5.03;2.13;;;;;;;16.20;62.03;102287.69;5149458;27;20126;-70
2023/10/05 00:37:13;;;;;;;6.53;1.70;;;;;;;16.19;62.08;102294.97;5141657;27;20047;-70
2023/10/05 00:39:46;;;;;;;7.00;2.17;;;;;;;16.20;61.90;102290.38;5152723;27;20042;-69
2023/10/05 00:42:16;;;;;;;6.53;2.30;;;;;;;16.18;62.05;102290.63;5150397;27;20068;-69
2023/10/05 00:44:44;;;;;;;4.78;1.77;;;;;;;16.20;62.06;102298.53;5150352;27;20078;-69
2023/10/05 00:47:13;;;;;;;6.13;2.15;;;;;;;16.18;62.01;102296.03;5141794;27;20070;-69
2023/10/05 00:49:45;;;;;;;6.68;1.83;;;;;;;16.18;62.05;102306.88;5150374;27;20513;-70
2023/10/05 00:52:15;;;;;;;5.47;1.67;;;;;;;16.09;61.94;102291.13;5145895;27;20054;-70
2023/10/05 00:54:48;;;;;;;8.80;2.63;;;;;;;16.16;62.10;102302.75;5152626;27;20039;-71
2023/10/05 00:57:19;;;;;;;5.35;2.38;;;;;;;16.16;62.16;102302.75;5148773;27;20051;-70
2023/10/05 00:59:54;;;;;;;6.22;1.90;;;;;;;16.15;62.02;102301.91;5151442;27;20035;-70
2023/10/05 01:02:22;;;;;;;8.02;1.95;;;;;;;16.15;62.04;102304.63;5146510;27;20047;-70
2023/10/05 01:04:56;;;;;;;8.30;2.05;;;;;;;16.15;62.08;102306.50;5151799;27;20051;-70
2023/10/05 01:07:49;;;;;;;7.35;1.77;;;;;;;16.13;62.03;102306.72;5153177;27;20146;-70
2023/10/05 01:13:00;;;;;;;6.43;2.13;;;;;;;16.12;62.02;102305.06;5151163;27;20042;-69
2023/10/05 01:15:33;;;;;;;6.07;2.00;;;;;;;16.13;62.24;102308.59;5145867;27;20043;-70
2023/10/05 01:18:01;;;;;;;6.25;1.95;;;;;;;16.13;61.75;102300.47;5144477;27;20071;-69
2023/10/05 01:20:36;;;;;;;9.02;2.60;;;;;;;16.13;62.09;102311.31;5151999;27;20072;-69
2023/10/05 01:23:06;;;;;;;6.22;2.10;;;;;;;16.11;62.00;102303.41;5141281;27;20058;-71
2023/10/05 01:25:36;;;;;;;5.10;2.42;;;;;;;16.10;62.03;102307.19;5154550;27;20047;-68
2023/10/05 01:28:07;;;;;;;9.15;2.28;;;;;;;16.10;62.07;102295.50;5149516;27;20125;-69
2023/10/05 01:30:38;;;;;;;6.93;1.85;;;;;;;16.11;62.26;102308.84;5145436;27;20047;-69
2023/10/05 01:33:08;;;;;;;8.93;1.98;;;;;;;16.10;62.13;102299.03;5154050;27;20046;-69
2023/10/05 01:35:37;;;;;;;7.32;2.50;;;;;;;16.09;62.01;102297.38;5149519;27;20053;-68
2023/10/05 01:38:07;;;;;;;6.07;1.90;;;;;;;16.09;62.12;102301.97;5147139;27;20043;-69
2023/10/05 01:40:36;;;;;;;10.23;2.97;;;;;;;16.09;62.06;102301.97;5150735;27;20054;-69
2023/10/05 01:43:06;;;;;;;6.15;2.10;;;;;;;16.08;62.03;102294.88;5145993;27;20110;-69
2023/10/05 01:45:34;;;;;;;3.75;1.48;;;;;;;16.04;62.10;102293.69;5155263;27;20053;-69
2023/10/05 01:48:13;;;;;;;6.22;2.55;;;;;;;16.06;62.03;102297.81;5146143;27;20419;-70
2023/10/05 01:50:44;;;;;;;6.95;1.92;;;;;;;16.05;62.10;102296.16;5141247;27;20142;-70
2023/10/05 01:53:16;;;;;;;5.30;1.65;;;;;;;16.05;62.21;102303.47;5145304;27;20070;-70
2023/10/05 01:55:45;;;;;;;5.85;2.05;;;;;;;16.05;62.23;102296.16;5148849;27;20427;-70
2023/10/05 01:58:26;;;;;;;7.10;2.47;;;;;;;16.05;62.01;102301.59;5143081;27;20125;-70
2023/10/05 02:00:56;;;;;;;8.25;2.42;;;;;;;16.03;62.17;102284.72;5156418;27;20050;-70
2023/10/05 02:03:25;;;;;;;5.32;2.08;;;;;;;16.03;62.16;102290.13;5149325;27;20838;-69
2023/10/05 02:05:58;;;;;;;7.00;2.17;;;;;;;16.02;62.42;102287.66;5150937;27;20464;-70
2023/10/05 02:08:30;;;;;;;7.63;2.05;;;;;;;16.02;62.28;102293.91;5140868;27;20059;-69
2023/10/05 02:11:01;;;;;;;4.45;1.80;;;;;;;16.01;62.00;102288.69;5152054;27;20047;-71
2023/10/05 02:13:29;;;;;;;6.55;2.00;;;;;;;16.02;61.98;102284.94;5145677;27;20062;-70
2023/10/05 02:15:59;;;;;;;6.30;1.80;;;;;;;16.02;62.19;102287.66;5143075;27;20095;-70
2023/10/05 02:18:30;;;;;;;15.35;2.22;;;;;;;15.99;62.24;102291.63;5149652;27;20106;-70
2023/10/05 02:21:05;;;;;;;4.88;2.15;;;;;;;15.96;62.30;102289.38;5149598;27;20063;-70
2023/10/05 02:23:39;;;;;;;4.43;1.98;;;;;;;16.00;62.17;102281.63;5144243;27;20038;-69
2023/10/05 02:26:10;;;;;;;4.90;1.77;;;;;;;15.99;62.13;102291.63;5146124;27;20043;-70
2023/10/05 02:28:39;;;;;;;4.30;1.80;;;;;;;15.99;62.19;102288.09;5150643;27;20099;-70
2023/10/05 02:31:12;;;;;;;4.50;1.60;;;;;;;15.98;62.32;102289.13;5143684;27;20103;-69
2023/10/05 02:33:43;;;;;;;8.00;1.80;;;;;;;15.97;62.28;102285.59;5145737;27;20407;-70
2023/10/05 02:36:14;;;;;;;5.57;1.67;;;;;;;15.98;62.25;102272.88;5148434;27;20062;-70
2023/10/05 02:38:49;;;;;;;6.57;2.10;;;;;;;15.96;62.15;102278.50;5146082;27;20051;-69
2023/10/05 02:41:24;;;;;;;3.95;1.67;;;;;;;15.93;62.26;102265.41;5146912;27;20062;-69
2023/10/05 02:43:53;;;;;;;6.97;2.13;;;;;;;15.95;62.16;102269.56;5146795;27;20043;-70
2023/10/05 02:46:24;;;;;;;5.82;1.95;;;;;;;15.90;62.22;102258.53;5144701;27;20046;-70
2023/10/05 02:48:52;;;;;;;5.25;2.38;;;;;;;15.94;62.23;102270.59;5143730;27;20047;-69
2023/10/05 02:51:21;;;;;;;3.03;1.65;;;;;;;15.94;62.28;102270.59;5142634;27;20170;-70
2023/10/05 02:53:55;;;;;;;3.25;1.63;;;;;;;15.93;62.33;102266.22;5142436;27;20047;-69
2023/10/05 02:56:28;;;;;;;10.05;2.30;;;;;;;15.92;62.18;102261.88;5138453;27;20130;-69
2023/10/05 02:59:02;;;;;;;8.77;2.55;;;;;;;15.91;62.45;102271.06;5143669;27;20081;-69
2023/10/05 03:01:33;;;;;;;7.80;1.80;;;;;;;15.92;62.17;102267.28;5153094;27;20549;-70
2023/10/05 03:04:09;;;;;;;6.45;1.63;;;;;;;15.92;62.21;102270.00;5142691;27;20078;-67
2023/10/05 03:06:39;;;;;;;8.48;2.13;;;;;;;15.92;62.23;102275.41;5144882;27;20067;-69
2023/10/05 03:09:08;;;;;;;7.82;2.00;;;;;;;15.91;62.33;102272.94;5148758;27;20043;-70
2023/10/05 03:11:37;;;;;;;7.22;2.03;;;;;;;15.91;62.23;102271.06;5149747;27;20064;-70
2023/10/05 03:14:06;;;;;;;5.43;1.63;;;;;;;15.85;62.29;102257.56;5150388;27;20043;-70
2023/10/05 03:16:42;;;;;;;7.28;1.90;;;;;;;15.89;62.29;102265.03;5148715;27;20043;-70
2023/10/05 03:19:13;;;;;;;6.70;1.88;;;;;;;15.90;62.20;102257.72;5151264;27;20081;-70
2023/10/05 03:21:42;;;;;;;6.40;2.08;;;;;;;15.89;62.20;102256.06;5148513;27;20129;-70
2023/10/05 03:24:13;;;;;;;7.85;1.83;;;;;;;15.89;62.27;102265.03;5151925;27;20063;-70
2023/10/05 03:26:42;;;;;;;6.63;1.83;;;;;;;15.87;62.36;102267.13;5153879;27;20056;-70
2023/10/05 03:29:11;;;;;;;5.00;1.80;;;;;;;15.87;62.29;102264.41;5144002;27;20080;-70
2023/10/05 03:31:49;;;;;;;6.57;1.90;;;;;;;15.86;62.31;102259.22;5146751;27;20050;-70
2023/10/05 03:34:20;;;;;;;4.85;1.92;;;;;;;15.86;62.19;102264.63;5147772;27;20467;-70
2023/10/05 03:36:48;;;;;;;3.42;1.55;;;;;;;15.86;62.24;102265.47;5143195;27;20060;-70
2023/10/05 03:39:23;;;;;;;6.25;2.20;;;;;;;15.87;62.20;102255.44;5148551;27;20418;-71
2023/10/05 03:41:50;;;;;;;4.05;2.17;;;;;;;15.84;62.12;102259.44;5144832;27;20043;-70
2023/10/05 03:44:18;;;;;;;4.82;1.80;;;;;;;15.83;62.30;102260.50;5149075;27;20051;-70
2023/10/05 03:46:47;;;;;;;5.22;1.67;;;;;;;15.83;62.26;102263.19;5147468;27;20059;-71
2023/10/05 03:49:15;;;;;;;6.60;2.08;;;;;;;15.84;62.19;102258.59;5146379;27;20104;-70
2023/10/05 03:51:49;;;;;;;5.32;1.70;;;;;;;15.83;62.26;102255.06;5149282;27;20077;-68
2023/10/05 03:54:18;;;;;;;3.45;1.67;;;;;;;15.83;62.27;102256.94;5153038;27;20073;-70
2023/10/05 03:56:50;;;;;;;4.60;1.65;;;;;;;15.82;62.30;102261.53;5149945;27;20049;-70
2023/10/05 03:59:18;;;;;;;7.90;2.35;;;;;;;15.81;62.28;102259.88;5158526;27;20138;-70
2023/10/05 04:01:48;;;;;;;5.25;1.60;;;;;;;15.80;62.36;102255.50;5144971;27;20059;-70
2023/10/05 04:04:21;;;;;;;3.25;1.98;;;;;;;15.79;62.20;102256.56;5155727;27;20130;-70
2023/10/05 04:06:51;;;;;;;6.68;2.22;;;;;;;15.79;62.24;102253.03;5153748;27;20049;-69
2023/10/05 04:09:19;;;;;;;6.05;2.08;;;;;;;15.79;62.16;102253.03;5147160;27;20126;-70
2023/10/05 04:11:49;;;;;;;6.13;2.00;;;;;;;15.78;62.16;102246.78;5155479;27;20522;-70
2023/10/05 04:14:17;;;;;;;8.07;2.20;;;;;;;15.78;62.26;102240.50;5146318;27;20079;-69
2023/10/05 04:16:48;;;;;;;6.38;1.70;;;;;;;15.67;62.28;102227.69;5160581;27;20077;-70
2023/10/05 04:19:17;;;;;;;6.38;2.03;;;;;;;15.73;62.28;102238.47;5144924;27;20043;-69
2023/10/05 04:21:46;;;;;;;3.55;1.52;;;;;;;15.76;62.17;102235.31;5148589;27;20047;-70
2023/10/05 04:24:14;;;;;;;5.75;1.60;;;;;;;15.76;62.20;102253.47;5152855;27;20065;-70
2023/10/05 04:26:45;;;;;;;7.00;2.45;;;;;;;15.74;62.22;102247.44;5150374;27;20047;-70
2023/10/05 04:29:15;;;;;;;7.93;1.75;;;;;;;15.74;62.25;102245.56;5145198;27;20092;-71
2023/10/05 04:31:48;;;;;;;4.10;2.00;;;;;;;15.75;62.19;102246.38;5147363;27;20031;-70
2023/10/05 04:34:18;;;;;;;8.93;2.47;;;;;;;15.74;62.31;102252.84;5153166;27;20051;-70
2023/10/05 04:36:48;;;;;;;5.43;1.98;;;;;;;15.74;62.32;102252.84;5146865;27;20070;-70
2023/10/05 04:39:28;;;;;;;5.57;2.20;;;;;;;15.74;62.25;102255.56;5149826;27;20063;-70
2023/10/05 04:41:57;;;;;;;6.70;3.05;;;;;;;15.73;62.09;102256.63;5151192;27;20059;-71
2023/10/05 04:44:26;;;;;;;6.30;1.90;;;;;;;15.72;62.32;102254.97;5150513;27;20074;-71
2023/10/05 04:46:54;;;;;;;5.90;2.33;;;;;;;15.72;62.35;102252.25;5149923;27;20043;-70
2023/10/05 04:49:24;;;;;;;6.30;2.33;;;;;;;15.71;62.31;102245.16;5146887;27;20055;-70
2023/10/05 04:51:52;;;;;;;6.00;1.90;;;;;;;15.71;62.42;102258.72;5146728;27;20187;-71
2023/10/05 04:54:25;;;;;;;9.02;2.25;;;;;;;15.65;62.44;102241.47;5150709;27;20065;-69
2023/10/05 04:57:06;;;;;;;6.13;2.10;;;;;;;15.70;62.49;102248.94;5144446;27;20047;-69
2023/10/05 04:59:48;;;;;;;7.55;2.83;;;;;;;15.68;62.45;102251.03;5136669;27;20043;-71
2023/10/05 05:02:21;;;;;;;3.95;1.65;;;;;;;15.69;62.33;102247.28;5136932;27;20047;-70
2023/10/05 05:05:05;;;;;;;7.40;2.42;;;;;;;15.54;62.36;102218.63;5149086;27;20078;-70
2023/10/05 05:07:33;;;;;;;5.97;2.13;;;;;;;15.62;62.53;102236.47;5150147;27;20047;-71
2023/10/05 05:10:03;;;;;;;7.03;2.00;;;;;;;15.68;62.41;102248.31;5149400;27;20067;-71
2023/10/05 05:12:31;;;;;;;6.70;2.03;;;;;;;15.67;62.45;102244.78;5148578;27;20394;-71
2023/10/05 05:15:00;;;;;;;8.00;2.13;;;;;;;15.67;62.46;102247.50;5144390;27;20081;-75
2023/10/05 05:17:28;;;;;;;7.28;2.08;;;;;;;15.67;62.42;102261.03;5150356;27;20058;-72
2023/10/05 05:19:57;;;;;;;5.40;1.67;;;;;;;15.66;62.46;102253.13;5146594;27;20047;-75
2023/10/05 05:22:26;;;;;;;5.38;2.10;;;;;;;15.63;62.47;102252.53;5143818;27;20450;-71
2023/10/05 05:24:54;;;;;;;3.65;1.63;;;;;;;15.63;62.51;102260.66;5145762;27;20047;-72
2023/10/05 05:27:22;;;;;;;8.93;2.38;;;;;;;15.61;62.38;102257.34;5145084;27;20118;-72
2023/10/05 05:29:52;;;;;;;5.72;2.25;;;;;;;15.62;62.53;102264.41;4787647;27;10000349;-69
2023/10/05 05:32:22;;;;;;;5.05;1.92;;;;;;;15.63;62.66;102267.94;5140353;27;20120;-69
2023/10/05 05:34:51;;;;;;;5.88;2.28;;;;;;;15.60;62.67;102265.72;5142702;27;20047;-70
2023/10/05 05:37:26;;;;;;;5.28;2.00;;;;;;;15.62;62.41;102269.00;5147260;27;20448;-70
2023/10/05 05:39:54;;;;;;;5.43;2.40;;;;;;;15.55;62.47;102263.63;5135450;27;20059;-70
2023/10/05 05:42:25;;;;;;;7.68;2.75;;;;;;;15.60;62.60;102271.13;5140682;27;20077;-70
2023/10/05 05:44:53;;;;;;;5.93;2.38;;;;;;;15.59;62.57;102274.91;5141763;27;20046;-69
2023/10/05 05:47:22;;;;;;;10.40;2.22;;;;;;;15.59;62.46;102274.91;5156400;27;20116;-71
2023/10/05 05:49:50;;;;;;;6.75;2.38;;;;;;;15.59;62.55;102269.47;5152881;27;20165;-69
2023/10/05 05:52:19;;;;;;;6.28;1.85;;;;;;;15.58;62.63;102265.09;5149768;27;20053;-70
2023/10/05 05:54:47;;;;;;;6.25;2.60;;;;;;;15.59;62.52;102272.19;5150651;27;20051;-69
2023/10/05 05:57:19;;;;;;;7.57;2.35;;;;;;;15.58;62.52;102278.66;5137205;27;20506;-69
2023/10/05 05:59:47;;;;;;;6.70;2.00;;;;;;;15.58;62.51;102275.94;5148743;27;20095;-70
2023/10/05 06:02:15;;;;;;;6.47;2.10;;;;;;;15.57;62.69;102279.72;5147665;27;20388;-69
2023/10/05 06:04:45;;;;;;;6.35;2.30;;;;;;;15.57;62.83;102271.56;5150946;27;20051;-68
2023/10/05 06:07:13;;;;;;;6.90;2.13;;;;;;;15.55;62.63;102271.75;5153957;27;20051;-68
2023/10/05 06:09:43;;;;;;;6.63;2.22;;;;;;;15.55;62.67;102279.91;5153827;27;20068;-71
2023/10/05 06:12:11;;;;;;;8.77;2.75;;;;;;;15.57;63.23;102271.56;5145513;27;20099;-77
2023/10/05 06:14:40;;;;;;;9.25;2.40;;;;;;;15.53;63.04;102276.56;5148520;27;20043;-74
2023/10/05 06:17:08;;;;;;;6.35;2.60;;;;;;;15.54;63.00;102280.13;5147406;27;20104;-78
2023/10/05 06:19:36;;;;;;;8.23;2.33;;;;;;;15.46;63.05;102269.53;5159302;27;20110;-77
2023/10/05 06:22:06;;;;;;;7.75;3.10;;;;;;;15.51;63.06;102289.50;5159035;27;20101;-78
2023/10/05 06:24:35;;;;;;;10.27;2.53;;;;;;;15.45;62.94;102279.56;5150830;27;20047;-78
2023/10/05 06:27:04;;;;;;;8.48;2.15;;;;;;;15.53;62.70;102292.00;5144604;27;20044;-78
2023/10/05 06:29:33;;;;;;;5.90;2.15;;;;;;;15.50;63.00;102298.69;5159816;27;20050;-71
2023/10/05 06:32:04;;;;;;;7.57;2.17;;;;;;;15.37;63.07;102289.81;5145759;27;20070;-75
2023/10/05 06:34:32;;;;;;;10.77;2.40;;;;;;;15.49;63.25;102316.00;5144245;27;20514;-75
2023/10/05 06:37:01;;;;;;;8.02;2.00;;;;;;;15.48;63.11;102311.63;5135304;27;20075;-75
2023/10/05 06:39:32;;;;;;;8.38;2.38;;;;;;;15.49;63.18;102318.72;5133136;27;20059;-74
2023/10/05 06:42:00;;;;;;;6.38;2.65;;;;;;;15.50;63.09;102311.41;5153625;27;20099;-75
2023/10/05 06:44:29;;;;;;;6.38;2.42;;;;;;;15.51;62.92;102310.34;5151567;27;20541;-76
2023/10/05 06:47:00;;;;;;;6.65;2.50;;;;;;;15.51;63.01;102311.19;5153111;27;20047;-74
2023/10/05 06:49:28;;;;;;;7.85;2.88;;;;;;;15.51;63.03;102318.50;5145593;27;20387;-74
2023/10/05 06:51:57;;;;;;;6.43;2.42;;;;;;;15.51;63.15;102323.91;5154530;27;20055;-75
2023/10/05 06:54:24;;;;;;;6.07;2.33;;;;;;;15.50;62.99;102328.50;5143068;27;20078;-74
2023/10/05 06:56:55;;;;;;;8.10;2.38;;;;;;;15.50;63.17;102339.34;5147969;27;20392;-70
2023/10/05 06:59:25;;;;;;;10.18;2.55;;;;;;;15.50;63.48;102338.50;5149548;27;20435;-67
2023/10/05 07:01:53;;;;;;;4.70;2.08;;;;;;;15.53;63.08;102340.78;5154876;27;20042;-67
2023/10/05 07:04:24;;;;;;;6.95;2.33;;;;;;;15.57;63.21;102342.88;5149098;27;20058;-68
2023/10/05 07:06:52;;;;;;;7.93;2.35;;;;;;;15.54;63.13;102345.97;5140522;27;20043;-67
2023/10/05 07:09:26;;;;;;;6.50;2.17;;;;;;;15.59;63.63;102348.06;5146522;27;20047;-67
2023/10/05 07:11:55;;;;;;;8.27;3.22;;;;;;;15.61;63.28;102348.66;5144555;27;20054;-69
2023/10/05 07:14:24;;;;;;;9.48;2.42;;;;;;;15.63;63.34;102355.50;5140057;27;20078;-67
2023/10/05 07:16:55;;;;;;;8.07;2.00;;;;;;;15.61;63.27;102349.47;5140355;27;20117;-68
2023/10/05 07:19:23;;;;;;;4.45;2.17;;;;;;;15.63;63.15;102360.09;5141647;27;20105;-69
2023/10/05 07:21:51;;;;;;;7.15;2.67;;;;;;;15.60;63.45;102361.38;5140639;27;20082;-69
2023/10/05 07:24:19;;;;;;;4.82;2.22;;;;;;;15.60;63.25;102360.56;5139904;28;20071;-69
2023/10/05 07:26:47;;;;;;;5.95;2.53;;;;;;;15.59;63.41;102358.91;5143337;27;20050;-70
2023/10/05 07:29:16;;;;;;;4.68;2.00;;;;;;;15.58;63.28;102355.38;5145340;27;20361;-67
2023/10/05 07:31:58;;;;;;;12.60;3.25;;;;;;;15.55;63.43;102361.19;5142131;27;20054;-68
2023/10/05 07:34:26;;;;;;;5.45;2.20;;;;;;;15.57;63.22;102372.69;5143118;27;20135;-68
2023/10/05 07:36:54;;;;;;;6.05;2.00;;;;;;;15.58;63.33;102387.06;5143136;27;20123;-67
2023/10/05 07:39:23;;;;;;;8.73;2.33;;;;;;;15.58;63.46;102381.63;5148176;27;20047;-68
2023/10/05 07:41:51;;;;;;;6.88;2.22;;;;;;;15.57;63.56;102388.09;5140781;27;20051;-68
2023/10/05 07:44:20;;;;;;;5.35;2.17;;;;;;;15.56;63.73;102384.53;5138234;27;20072;-67
2023/10/05 07:46:48;;;;;;;6.65;2.00;;;;;;;15.56;63.87;102387.25;5140443;27;20134;-68
2023/10/05 07:49:16;;;;;;;8.70;2.85;;;;;;;15.56;63.52;102381.81;5143025;27;20051;-66
2023/10/05 07:51:44;;;;;;;7.07;2.42;;;;;;;15.57;63.42;102394.34;5138254;27;20150;-67
2023/10/05 07:54:12;;;;;;;8.15;2.05;;;;;;;15.56;63.61;102389.94;5144365;27;20070;-67
2023/10/05 07:56:40;;;;;;;7.57;2.10;;;;;;;15.55;63.71;102392.88;5141843;27;20051;-67
2023/10/05 07:59:08;;;;;;;7.25;2.65;;;;;;;15.55;63.80;102396.41;5145692;27;20065;-67
2023/10/05 08:01:37;;;;;;;7.15;2.28;;;;;;;15.54;63.99;102396.63;5147333;27;20039;-67
2023/10/05 08:04:06;;;;;;;7.03;2.80;;;;;;;15.54;64.03;102397.47;5153637;27;20055;-67
2023/10/05 08:06:34;;;;;;;6.50;2.58;;;;;;;15.51;64.42;102395.19;5148090;27;20268;-66
2023/10/05 08:09:01;;;;;;;7.75;2.53;;;;;;;15.53;64.04;102406.66;5146094;27;20055;-68
2023/10/05 08:11:29;;;;;;;12.88;3.17;;;;;;;15.55;64.06;102403.72;5147503;27;20066;-67
2023/10/05 08:13:57;;;;;;;11.50;2.88;;;;;;;15.53;64.99;102403.09;5146345;27;20080;-68
2023/10/05 08:16:25;;;;;;;12.38;3.83;;;;;;;15.50;65.08;102403.53;5145093;27;20069;-67
2023/10/05 08:18:55;;;;;;;10.95;3.58;;;;;;;15.55;65.55;102403.72;5145528;27;20101;-68
2023/10/05 08:21:22;;;;;;;11.65;3.95;;;;;;;15.55;65.75;102407.25;5143854;27;20099;-67
2023/10/05 08:23:51;;;;;;;10.10;4.03;;;;;;;15.56;65.67;102408.09;5146097;27;20088;-66
2023/10/05 08:26:20;;;;;;;10.90;3.25;;;;;;;15.52;65.66;102404.97;5146585;27;20117;-68
2023/10/05 08:28:49;;;;;;;8.65;2.95;;;;;;;15.54;65.93;102412.91;5142841;27;20040;-67
2023/10/05 08:31:23;;;;;;;12.40;2.60;;;;;;;15.54;65.66;102408.31;5143867;27;20066;-67
2023/10/05 08:33:52;;;;;;;7.68;3.55;;;;;;;15.56;65.62;102408.09;5146685;27;20073;-68
2023/10/05 08:36:22;;;;;;;11.65;3.78;;;;;;;15.55;65.82;102412.69;5144875;27;20103;-68
2023/10/05 08:38:54;;;;;;;17.73;3.28;;;;;;;15.56;65.73;102417.06;5148480;27;20047;-68
2023/10/05 08:41:31;;;;;;;14.48;3.20;;;;;;;15.54;65.73;102412.91;5146242;27;20059;-69
2023/10/05 08:44:00;;;;;;;9.85;3.60;;;;;;;15.52;65.92;102404.16;5144126;27;20387;-70
2023/10/05 08:46:30;;;;;;;10.77;3.70;;;;;;;15.50;65.85;102408.97;5147781;27;20050;-69
2023/10/05 08:49:07;;;;;;;16.10;3.30;;;;;;;15.55;66.04;102431.66;5142695;27;20275;-69
2023/10/05 08:51:39;;;;;;;9.20;2.85;;;;;;;15.55;65.93;102422.69;5141476;27;20085;-68
2023/10/05 08:54:11;;;;;;;9.38;3.00;;;;;;;15.56;65.83;102425.19;5149947;27;20048;-67
2023/10/05 08:56:41;;;;;;;12.13;3.63;;;;;;;15.57;65.94;102436.88;5147167;27;20146;-67
2023/10/05 08:59:13;;;;;;;10.80;2.47;;;;;;;15.57;66.05;102436.88;5146215;27;20043;-67
2023/10/05 09:01:43;;;;;;;11.70;3.55;;;;;;;15.56;65.87;102436.03;5148831;27;20100;-67
2023/10/05 09:04:29;;;;;;;10.75;2.70;;;;;;;15.57;65.68;102439.59;5146021;27;20043;-67
2023/10/05 09:06:59;;;;;;;11.27;2.70;;;;;;;15.59;65.79;102448.34;5145554;27;20047;-67
2023/10/05 09:09:37;;;;;;;6.82;2.40;;;;;;;15.59;65.56;102442.91;5157559;27;20280;-68
2023/10/05 09:12:34;;;;;;;10.27;3.17;;;;;;;15.60;65.87;102455.44;5139125;27;20107;-67
2023/10/05 09:15:08;;;;;;;;;;;;;;;15.60;65.83;102464.34;5152908;27;20046;-67
2023/10/05 09:17:36;;;;;;;10.95;2.83;;;;;;;15.59;65.62;102462.72;5161779;27;19974;-66
2023/10/05 09:20:30;;;;;;;17.23;3.03;;;;;;;15.61;65.82;102467.91;5162147;27;20057;-66
2023/10/05 09:23:03;;;;;;;9.13;3.00;;;;;;;15.61;65.90;102471.44;5135551;27;20050;-68
2023/10/05 09:25:35;;;;;;;14.38;3.42;;;;;;;15.63;65.74;102482.06;5164401;27;20046;-68
2023/10/05 09:28:12;;;;;;;9.70;2.75;;;;;;;15.63;65.71;102480.19;5158978;27;20047;-67
2023/10/05 09:30:55;;;;;;;10.13;3.15;;;;;;;15.66;65.65;102491.66;5146737;27;20070;-68
2023/10/05 09:33:25;;;;;;;10.45;2.60;;;;;;;15.65;65.81;102485.38;5145856;27;20111;-68
2023/10/05 09:35:56;;;;;;;10.02;3.00;;;;;;;15.66;65.79;102486.22;5146454;27;20413;-68
2023/10/05 09:38:26;;;;;;;16.75;3.53;;;;;;;15.66;65.79;102480.81;5144339;27;20055;-67
2023/10/05 09:40:55;;;;;;;13.23;3.47;;;;;;;15.66;65.91;102478.91;5146441;27;20091;-67
2023/10/05 09:43:27;;;;;;;10.60;2.47;;;;;;;15.63;65.83;102468.50;5144126;27;20072;-65
2023/10/05 09:45:59;;;;;;;13.25;3.22;;;;;;;15.66;65.91;102468.06;5148779;27;20035;-67
2023/10/05 09:48:31;;;;;;;6.55;2.10;;;;;;;15.68;65.99;102484.97;5156791;27;20066;-68
2023/10/05 09:50:59;;;;;;;9.75;3.10;;;;;;;15.68;66.09;102482.25;5162067;27;20522;-68
2023/10/05 09:53:29;;;;;;;9.18;3.17;;;;;;;15.68;65.97;102476.00;5150067;27;20047;-69
2023/10/05 09:55:59;;;;;;;9.38;2.72;;;;;;;15.70;65.92;102484.75;5150075;27;20107;-68
2023/10/05 09:58:29;;;;;;;7.55;2.60;;;;;;;15.69;65.93;102489.34;5137020;27;20097;-67
2023/10/05 10:00:57;;;;;;;14.65;2.92;;;;;;;15.71;65.94;102480.97;5144690;27;20055;-67
2023/10/05 10:03:25;;;;;;;12.60;3.17;;;;;;;15.71;65.83;102478.28;5144917;27;20151;-67
2023/10/05 10:05:59;;;;;;;9.63;2.95;;;;;;;15.73;65.93;102485.16;5146608;27;20061;-67
2023/10/05 10:08:31;;;;;;;6.88;2.53;;;;;;;15.74;65.71;102485.97;5144582;27;20110;-67
2023/10/05 10:11:03;;;;;;;8.98;2.53;;;;;;;15.74;65.70;102483.25;5150788;27;20076;-67
2023/10/05 10:13:37;;;;;;;8.98;2.75;;;;;;;15.75;65.71;102479.50;5147038;27;20047;-68
2023/10/05 10:16:21;;;;;;;10.48;2.45;;;;;;;15.75;65.71;102477.63;5142237;27;20070;-68
2023/10/05 10:18:53;;;;;;;8.50;2.80;;;;;;;15.75;65.79;102474.09;5160700;27;20074;-68
2023/10/05 10:21:25;;;;;;;8.32;2.35;;;;;;;15.76;65.70;102482.00;5154989;27;20144;-67
2023/10/05 10:24:03;;;;;;;8.48;2.30;;;;;;;15.79;65.79;102480.72;5144595;27;20039;-67
2023/10/05 10:26:32;;;;;;;7.28;2.13;;;;;;;15.80;65.69;102490.53;5140275;27;20050;-67
2023/10/05 10:29:05;;;;;;;9.27;3.10;;;;;;;15.82;65.48;102483.00;5152895;27;20054;-67
2023/10/05 10:32:18;;;;;;;10.15;3.10;;;;;;;15.82;65.52;102477.59;5149730;27;20126;-67
2023/10/05 10:34:55;;;;;;;7.50;2.17;;;;;;;15.78;65.62;102469.06;5150649;27;20050;-67
2023/10/05 10:37:39;;;;;;;5.90;2.55;;;;;;;15.83;65.72;102479.25;5155453;27;20055;-67
2023/10/05 10:40:25;;;;;;;9.05;2.55;;;;;;;15.83;65.73;102477.38;5152974;27;20047;-67
2023/10/05 10:43:06;;;;;;;6.47;2.50;;;;;;;15.78;65.63;102473.66;5145703;27;20073;-67
2023/10/05 10:45:41;;;;;;;4.43;1.95;;;;;;;15.84;65.69;102487.16;5154913;27;20061;-67
2023/10/05 10:48:20;;;;;;;9.35;2.40;;;;;;;15.85;65.61;102479.88;5159297;27;20111;-67
2023/10/05 10:50:52;;;;;;;10.43;2.75;;;;;;;15.90;65.60;102477.34;5152321;27;20047;-67
2023/10/05 10:53:25;;;;;;;9.65;2.67;;;;;;;15.86;65.48;102465.25;5147175;27;20184;-67
2023/10/05 10:56:03;;;;;;;5.78;2.30;;;;;;;15.78;65.73;102446.53;5163099;27;20054;-67
2023/10/05 10:58:32;;;;;;;11.60;2.53;;;;;;;15.92;65.53;102464.41;5146791;27;20073;-67
2023/10/05 11:01:04;;;;;;;8.70;2.53;;;;;;;15.91;65.43;102463.56;5151712;27;20059;-64
2023/10/05 11:03:32;;;;;;;9.88;2.35;;;;;;;15.94;65.56;102470.44;5144345;27;20054;-67
2023/10/05 11:06:03;;;;;;;9.07;3.25;;;;;;;15.95;65.42;102472.94;4785605;27;10000551;-68
2023/10/05 11:08:40;;;;;;;7.63;2.45;;;;;;;15.97;65.36;102472.72;5139400;27;20050;-68
2023/10/05 11:11:15;;;;;;;4.20;1.77;;;;;;;15.95;65.20;102462.06;5137584;27;20122;-68
2023/10/05 11:13:49;;;;;;;8.82;2.90;;;;;;;15.95;65.35;102462.06;5139583;27;20039;-68
2023/10/05 11:16:19;;;;;;;8.05;2.95;;;;;;;16.01;64.94;102462.25;5139380;27;20372;-67
2023/10/05 11:18:57;;;;;;;10.32;3.15;;;;;;;16.01;65.37;102473.09;5138673;27;20112;-66
2023/10/05 11:21:27;;;;;;;8.10;2.80;;;;;;;16.01;65.23;102473.94;5137360;27;20071;-68
2023/10/05 11:23:57;;;;;;;7.93;2.80;;;;;;;16.03;65.20;102474.53;5136908;27;20054;-68
2023/10/05 11:26:33;;;;;;;6.72;2.45;;;;;;;16.06;65.34;102473.28;5144539;27;20099;-67
2023/10/05 11:29:28;;;;;;;9.95;3.88;;;;;;;16.14;65.09;102473.84;5139350;27;20142;-67
2023/10/05 11:32:01;;;;;;;9.77;2.15;;;;;;;16.14;64.97;102459.47;5136333;27;20075;-67
2023/10/05 11:34:55;;;;;;;6.57;1.92;;;;;;;16.16;65.00;102465.50;5143087;27;20067;-68
2023/10/05 11:37:45;;;;;;;9.82;2.67;;;;;;;16.16;65.01;102452.75;5145357;27;20509;-68
2023/10/05 11:40:23;;;;;;;9.38;2.33;;;;;;;16.17;64.79;102467.16;5141834;27;20055;-67
2023/10/05 11:42:54;;;;;;;8.32;2.22;;;;;;;16.18;64.60;102458.78;5142572;27;20051;-67
2023/10/05 11:45:23;;;;;;;7.68;2.33;;;;;;;16.20;64.59;102461.28;5140746;27;20145;-67
2023/10/05 11:47:52;;;;;;;3.80;2.28;;;;;;;16.23;64.63;102460.84;5141507;27;20067;-68